sensor_id;sensor_type;location;lat;lon;timestamp;P1;durP1;ratioP1;P2;durP2;ratioP2
52978;SDS011;63430;53.186;6.598;2022-12-18T00:01:44;53.58;;;21.63;;
52978;SDS011;63430;53.186;6.598;2022-12-18T00:03:50;31.40;;;17.77;;
52978;SDS011;63430;53.186;6.598;2022-12-18T00:05:53;39.80;;;20.13;;
52978;SDS011;63430;53.186;6.598;2022-12-18T00:07:56;29.80;;;18.02;;
52978;SDS011;63430;53.186;6.598;2022-12-18T00:09:58;38.10;;;22.60;;
52978;SDS011;63430;53.186;6.598;2022-12-18T00:12:01;37.47;;;22.52;;
52978;SDS011;63430;53.186;6.598;2022-12-18T00:14:16;35.00;;;19.15;;
52978;SDS011;63430;53.186;6.598;2022-12-18T00:16:20;35.08;;;20.20;;
52978;SDS011;63430;53.186;6.598;2022-12-18T00:18:24;43.65;;;20.42;;
52978;SDS011;63430;53.186;6.598;2022-12-18T00:20:29;50.25;;;21.85;;
52978;SDS011;63430;53.186;6.598;2022-12-18T00:22:32;49.00;;;23.52;;
52978;SDS011;63430;53.186;6.598;2022-12-18T00:24:34;36.90;;;20.67;;
52978;SDS011;63430;53.186;6.598;2022-12-18T00:26:37;41.95;;;20.63;;
52978;SDS011;63430;53.186;6.598;2022-12-18T00:28:41;37.47;;;20.75;;
52978;SDS011;63430;53.186;6.598;2022-12-18T00:30:43;42.45;;;23.20;;
52978;SDS011;63430;53.186;6.598;2022-12-18T00:32:47;43.85;;;20.17;;
52978;SDS011;63430;53.186;6.598;2022-12-18T00:34:50;39.83;;;22.05;;
52978;SDS011;63430;53.186;6.598;2022-12-18T00:36:55;40.88;;;21.35;;
52978;SDS011;63430;53.186;6.598;2022-12-18T00:38:58;44.80;;;21.95;;
52978;SDS011;63430;53.186;6.598;2022-12-18T00:43:05;40.58;;;21.13;;
52978;SDS011;63430;53.186;6.598;2022-12-18T00:45:10;45.33;;;20.00;;
52978;SDS011;63430;53.186;6.598;2022-12-18T00:47:14;40.88;;;20.52;;
52978;SDS011;63430;53.186;6.598;2022-12-18T00:49:18;39.35;;;20.70;;
52978;SDS011;63430;53.186;6.598;2022-12-18T00:51:21;36.47;;;20.83;;
52978;SDS011;63430;53.186;6.598;2022-12-18T00:53:27;40.67;;;22.73;;
52978;SDS011;63430;53.186;6.598;2022-12-18T00:55:30;44.55;;;24.02;;
52978;SDS011;63430;53.186;6.598;2022-12-18T00:57:33;35.47;;;21.05;;
52978;SDS011;63430;53.186;6.598;2022-12-18T00:59:35;45.58;;;20.80;;
52978;SDS011;63430;53.186;6.598;2022-12-18T01:01:38;37.47;;;23.08;;
52978;SDS011;63430;53.186;6.598;2022-12-18T01:03:41;38.03;;;21.77;;
52978;SDS011;63430;53.186;6.598;2022-12-18T01:05:43;38.90;;;21.35;;
52978;SDS011;63430;53.186;6.598;2022-12-18T01:07:46;35.00;;;20.65;;
52978;SDS011;63430;53.186;6.598;2022-12-18T01:09:51;43.95;;;22.38;;
52978;SDS011;63430;53.186;6.598;2022-12-18T01:11:53;46.35;;;20.27;;
52978;SDS011;63430;53.186;6.598;2022-12-18T01:13:59;39.20;;;21.30;;
52978;SDS011;63430;53.186;6.598;2022-12-18T01:16:02;42.65;;;21.95;;
52978;SDS011;63430;53.186;6.598;2022-12-18T01:18:05;35.22;;;17.52;;
52978;SDS011;63430;53.186;6.598;2022-12-18T01:20:09;35.15;;;21.05;;
52978;SDS011;63430;53.186;6.598;2022-12-18T01:22:14;37.85;;;18.05;;
52978;SDS011;63430;53.186;6.598;2022-12-18T01:24:19;31.08;;;19.42;;
52978;SDS011;63430;53.186;6.598;2022-12-18T01:26:26;45.35;;;20.00;;
52978;SDS011;63430;53.186;6.598;2022-12-18T01:28:41;37.03;;;18.42;;
52978;SDS011;63430;53.186;6.598;2022-12-18T01:30:45;31.48;;;16.92;;
52978;SDS011;63430;53.186;6.598;2022-12-18T01:32:47;42.83;;;18.23;;
52978;SDS011;63430;53.186;6.598;2022-12-18T01:34:51;29.45;;;18.10;;
52978;SDS011;63430;53.186;6.598;2022-12-18T01:36:53;48.30;;;21.08;;
52978;SDS011;63430;53.186;6.598;2022-12-18T01:38:56;40.47;;;20.27;;
52978;SDS011;63430;53.186;6.598;2022-12-18T01:41:02;32.83;;;20.83;;
52978;SDS011;63430;53.186;6.598;2022-12-18T01:43:08;41.22;;;22.05;;
52978;SDS011;63430;53.186;6.598;2022-12-18T01:45:24;35.35;;;19.98;;
52978;SDS011;63430;53.186;6.598;2022-12-18T01:47:31;30.15;;;18.40;;
52978;SDS011;63430;53.186;6.598;2022-12-18T01:49:36;37.47;;;18.77;;
52978;SDS011;63430;53.186;6.598;2022-12-18T01:51:39;40.03;;;20.60;;
52978;SDS011;63430;53.186;6.598;2022-12-18T01:53:42;35.83;;;19.83;;
52978;SDS011;63430;53.186;6.598;2022-12-18T01:55:47;39.92;;;18.77;;
52978;SDS011;63430;53.186;6.598;2022-12-18T01:57:52;39.30;;;17.45;;
52978;SDS011;63430;53.186;6.598;2022-12-18T02:00:00;39.13;;;19.65;;
52978;SDS011;63430;53.186;6.598;2022-12-18T02:02:13;33.90;;;17.73;;
52978;SDS011;63430;53.186;6.598;2022-12-18T02:04:25;41.20;;;22.02;;
52978;SDS011;63430;53.186;6.598;2022-12-18T02:08:37;41.67;;;19.55;;
52978;SDS011;63430;53.186;6.598;2022-12-18T02:10:46;33.97;;;17.25;;
52978;SDS011;63430;53.186;6.598;2022-12-18T02:13:00;33.70;;;17.90;;
52978;SDS011;63430;53.186;6.598;2022-12-18T02:15:13;37.22;;;20.48;;
52978;SDS011;63430;53.186;6.598;2022-12-18T02:17:21;36.15;;;18.80;;
52978;SDS011;63430;53.186;6.598;2022-12-18T02:22:06;37.40;;;19.23;;
52978;SDS011;63430;53.186;6.598;2022-12-18T02:24:26;40.67;;;20.98;;
52978;SDS011;63430;53.186;6.598;2022-12-18T02:26:46;35.28;;;17.92;;
52978;SDS011;63430;53.186;6.598;2022-12-18T02:28:55;30.10;;;16.13;;
52978;SDS011;63430;53.186;6.598;2022-12-18T02:31:05;43.25;;;20.30;;
52978;SDS011;63430;53.186;6.598;2022-12-18T02:33:10;41.00;;;19.92;;
52978;SDS011;63430;53.186;6.598;2022-12-18T02:35:15;38.78;;;18.52;;
52978;SDS011;63430;53.186;6.598;2022-12-18T02:37:22;38.63;;;21.13;;
52978;SDS011;63430;53.186;6.598;2022-12-18T02:39:27;31.63;;;17.90;;
52978;SDS011;63430;53.186;6.598;2022-12-18T02:41:36;33.90;;;17.25;;
52978;SDS011;63430;53.186;6.598;2022-12-18T02:43:43;30.50;;;17.05;;
52978;SDS011;63430;53.186;6.598;2022-12-18T02:45:58;41.78;;;17.20;;
52978;SDS011;63430;53.186;6.598;2022-12-18T02:48:07;45.25;;;19.90;;
52978;SDS011;63430;53.186;6.598;2022-12-18T02:50:12;42.95;;;21.85;;
52978;SDS011;63430;53.186;6.598;2022-12-18T02:52:24;40.03;;;17.98;;
52978;SDS011;63430;53.186;6.598;2022-12-18T02:54:38;31.58;;;17.02;;
52978;SDS011;63430;53.186;6.598;2022-12-18T02:57:01;27.33;;;17.70;;
52978;SDS011;63430;53.186;6.598;2022-12-18T02:59:13;39.63;;;18.63;;
52978;SDS011;63430;53.186;6.598;2022-12-18T03:01:28;27.77;;;19.90;;
52978;SDS011;63430;53.186;6.598;2022-12-18T03:03:39;39.88;;;21.30;;
52978;SDS011;63430;53.186;6.598;2022-12-18T03:05:45;34.67;;;18.67;;
52978;SDS011;63430;53.186;6.598;2022-12-18T03:07:55;43.05;;;19.45;;
52978;SDS011;63430;53.186;6.598;2022-12-18T03:10:05;43.38;;;19.95;;
52978;SDS011;63430;53.186;6.598;2022-12-18T03:12:13;32.58;;;17.02;;
52978;SDS011;63430;53.186;6.598;2022-12-18T03:14:31;36.53;;;17.05;;
52978;SDS011;63430;53.186;6.598;2022-12-18T03:16:40;48.38;;;21.00;;
52978;SDS011;63430;53.186;6.598;2022-12-18T03:18:47;45.17;;;19.65;;
52978;SDS011;63430;53.186;6.598;2022-12-18T03:20:54;49.05;;;20.30;;
52978;SDS011;63430;53.186;6.598;2022-12-18T03:23:01;42.08;;;19.85;;
52978;SDS011;63430;53.186;6.598;2022-12-18T03:25:12;44.30;;;20.95;;
52978;SDS011;63430;53.186;6.598;2022-12-18T03:27:17;43.20;;;20.30;;
52978;SDS011;63430;53.186;6.598;2022-12-18T03:29:24;32.40;;;18.13;;
52978;SDS011;63430;53.186;6.598;2022-12-18T03:31:34;39.25;;;21.52;;
52978;SDS011;63430;53.186;6.598;2022-12-18T03:33:42;36.28;;;19.90;;
52978;SDS011;63430;53.186;6.598;2022-12-18T03:35:49;39.20;;;20.88;;
52978;SDS011;63430;53.186;6.598;2022-12-18T03:37:53;38.17;;;20.40;;
52978;SDS011;63430;53.186;6.598;2022-12-18T03:39:56;43.05;;;19.70;;
52978;SDS011;63430;53.186;6.598;2022-12-18T03:42:01;38.90;;;17.00;;
52978;SDS011;63430;53.186;6.598;2022-12-18T03:44:11;49.03;;;20.83;;
52978;SDS011;63430;53.186;6.598;2022-12-18T03:46:22;46.33;;;20.58;;
52978;SDS011;63430;53.186;6.598;2022-12-18T03:48:33;32.40;;;17.75;;
52978;SDS011;63430;53.186;6.598;2022-12-18T03:50:45;34.83;;;18.25;;
52978;SDS011;63430;53.186;6.598;2022-12-18T03:52:54;37.42;;;19.52;;
52978;SDS011;63430;53.186;6.598;2022-12-18T03:55:02;36.50;;;20.02;;
52978;SDS011;63430;53.186;6.598;2022-12-18T03:57:09;33.53;;;18.60;;
52978;SDS011;63430;53.186;6.598;2022-12-18T03:59:17;46.20;;;19.73;;
52978;SDS011;63430;53.186;6.598;2022-12-18T04:01:23;43.65;;;19.15;;
52978;SDS011;63430;53.186;6.598;2022-12-18T04:03:33;43.53;;;20.63;;
52978;SDS011;63430;53.186;6.598;2022-12-18T04:05:37;25.20;;;16.65;;
52978;SDS011;63430;53.186;6.598;2022-12-18T04:07:41;32.95;;;17.63;;
52978;SDS011;63430;53.186;6.598;2022-12-18T04:09:47;43.85;;;22.33;;
52978;SDS011;63430;53.186;6.598;2022-12-18T04:11:52;41.20;;;19.73;;
52978;SDS011;63430;53.186;6.598;2022-12-18T04:13:56;29.58;;;18.45;;
52978;SDS011;63430;53.186;6.598;2022-12-18T04:15:59;39.13;;;20.00;;
52978;SDS011;63430;53.186;6.598;2022-12-18T04:18:03;43.85;;;19.35;;
52978;SDS011;63430;53.186;6.598;2022-12-18T04:20:16;37.05;;;18.98;;
52978;SDS011;63430;53.186;6.598;2022-12-18T04:22:20;33.28;;;19.42;;
52978;SDS011;63430;53.186;6.598;2022-12-18T04:24:28;41.88;;;20.67;;
52978;SDS011;63430;53.186;6.598;2022-12-18T04:26:44;40.65;;;19.05;;
52978;SDS011;63430;53.186;6.598;2022-12-18T04:28:58;38.85;;;19.13;;
52978;SDS011;63430;53.186;6.598;2022-12-18T04:31:02;23.63;;;16.98;;
52978;SDS011;63430;53.186;6.598;2022-12-18T04:33:07;37.55;;;18.00;;
52978;SDS011;63430;53.186;6.598;2022-12-18T04:35:10;36.45;;;19.20;;
52978;SDS011;63430;53.186;6.598;2022-12-18T04:37:23;44.47;;;19.25;;
52978;SDS011;63430;53.186;6.598;2022-12-18T04:39:26;29.38;;;18.25;;
52978;SDS011;63430;53.186;6.598;2022-12-18T04:41:31;33.38;;;19.00;;
52978;SDS011;63430;53.186;6.598;2022-12-18T04:43:37;40.22;;;20.35;;
52978;SDS011;63430;53.186;6.598;2022-12-18T04:45:41;40.75;;;19.00;;
52978;SDS011;63430;53.186;6.598;2022-12-18T04:47:44;46.22;;;18.65;;
52978;SDS011;63430;53.186;6.598;2022-12-18T04:49:47;34.38;;;16.30;;
52978;SDS011;63430;53.186;6.598;2022-12-18T04:51:50;30.92;;;16.95;;
52978;SDS011;63430;53.186;6.598;2022-12-18T04:53:55;34.38;;;19.10;;
52978;SDS011;63430;53.186;6.598;2022-12-18T04:56:05;39.15;;;20.33;;
52978;SDS011;63430;53.186;6.598;2022-12-18T04:58:09;28.83;;;18.63;;
52978;SDS011;63430;53.186;6.598;2022-12-18T05:00:12;31.80;;;17.77;;
52978;SDS011;63430;53.186;6.598;2022-12-18T05:02:15;39.03;;;20.02;;
52978;SDS011;63430;53.186;6.598;2022-12-18T05:04:18;35.70;;;16.80;;
52978;SDS011;63430;53.186;6.598;2022-12-18T05:06:21;33.35;;;17.38;;
52978;SDS011;63430;53.186;6.598;2022-12-18T05:08:23;28.45;;;16.17;;
52978;SDS011;63430;53.186;6.598;2022-12-18T05:10:28;31.55;;;17.02;;
52978;SDS011;63430;53.186;6.598;2022-12-18T05:12:38;34.90;;;18.80;;
52978;SDS011;63430;53.186;6.598;2022-12-18T05:15:03;28.30;;;15.68;;
52978;SDS011;63430;53.186;6.598;2022-12-18T05:17:07;47.70;;;18.73;;
52978;SDS011;63430;53.186;6.598;2022-12-18T05:19:10;32.83;;;18.25;;
52978;SDS011;63430;53.186;6.598;2022-12-18T05:21:13;42.63;;;15.90;;
52978;SDS011;63430;53.186;6.598;2022-12-18T05:23:16;31.65;;;17.27;;
52978;SDS011;63430;53.186;6.598;2022-12-18T05:25:19;32.00;;;16.40;;
52978;SDS011;63430;53.186;6.598;2022-12-18T05:27:25;38.00;;;18.20;;
52978;SDS011;63430;53.186;6.598;2022-12-18T05:29:29;36.38;;;16.45;;
52978;SDS011;63430;53.186;6.598;2022-12-18T05:31:32;23.63;;;17.33;;
52978;SDS011;63430;53.186;6.598;2022-12-18T05:33:40;46.47;;;16.05;;
52978;SDS011;63430;53.186;6.598;2022-12-18T05:35:49;23.95;;;15.07;;
52978;SDS011;63430;53.186;6.598;2022-12-18T05:37:52;19.88;;;14.90;;
52978;SDS011;63430;53.186;6.598;2022-12-18T05:39:54;27.35;;;16.27;;
52978;SDS011;63430;53.186;6.598;2022-12-18T05:41:57;25.77;;;15.70;;
52978;SDS011;63430;53.186;6.598;2022-12-18T05:44:06;27.17;;;16.00;;
52978;SDS011;63430;53.186;6.598;2022-12-18T05:46:11;25.38;;;17.00;;
52978;SDS011;63430;53.186;6.598;2022-12-18T05:48:15;26.27;;;14.50;;
52978;SDS011;63430;53.186;6.598;2022-12-18T05:50:19;33.65;;;17.20;;
52978;SDS011;63430;53.186;6.598;2022-12-18T05:52:23;31.85;;;16.50;;
52978;SDS011;63430;53.186;6.598;2022-12-18T05:54:27;25.85;;;14.63;;
52978;SDS011;63430;53.186;6.598;2022-12-18T05:56:30;32.33;;;15.45;;
52978;SDS011;63430;53.186;6.598;2022-12-18T05:58:35;19.58;;;13.65;;
52978;SDS011;63430;53.186;6.598;2022-12-18T06:00:41;28.00;;;14.45;;
52978;SDS011;63430;53.186;6.598;2022-12-18T06:02:46;35.42;;;15.30;;
52978;SDS011;63430;53.186;6.598;2022-12-18T06:04:49;29.88;;;15.15;;
52978;SDS011;63430;53.186;6.598;2022-12-18T06:06:51;28.80;;;16.92;;
52978;SDS011;63430;53.186;6.598;2022-12-18T06:08:54;24.80;;;14.07;;
52978;SDS011;63430;53.186;6.598;2022-12-18T06:10:59;26.90;;;15.02;;
52978;SDS011;63430;53.186;6.598;2022-12-18T06:13:02;45.15;;;13.88;;
52978;SDS011;63430;53.186;6.598;2022-12-18T06:15:05;33.08;;;16.30;;
52978;SDS011;63430;53.186;6.598;2022-12-18T06:17:11;35.80;;;16.98;;
52978;SDS011;63430;53.186;6.598;2022-12-18T06:19:14;19.20;;;12.85;;
52978;SDS011;63430;53.186;6.598;2022-12-18T06:21:17;28.60;;;14.27;;
52978;SDS011;63430;53.186;6.598;2022-12-18T06:23:20;29.20;;;14.80;;
52978;SDS011;63430;53.186;6.598;2022-12-18T06:25:23;20.00;;;13.95;;
52978;SDS011;63430;53.186;6.598;2022-12-18T06:27:25;21.60;;;13.68;;
52978;SDS011;63430;53.186;6.598;2022-12-18T06:29:28;24.77;;;13.40;;
52978;SDS011;63430;53.186;6.598;2022-12-18T06:31:31;34.28;;;15.27;;
52978;SDS011;63430;53.186;6.598;2022-12-18T06:33:39;17.92;;;12.75;;
52978;SDS011;63430;53.186;6.598;2022-12-18T06:35:42;28.83;;;18.13;;
52978;SDS011;63430;53.186;6.598;2022-12-18T06:37:45;26.23;;;14.13;;
52978;SDS011;63430;53.186;6.598;2022-12-18T06:39:47;22.63;;;14.63;;
52978;SDS011;63430;53.186;6.598;2022-12-18T06:41:50;19.80;;;11.50;;
52978;SDS011;63430;53.186;6.598;2022-12-18T06:43:53;20.13;;;11.55;;
52978;SDS011;63430;53.186;6.598;2022-12-18T06:46:01;23.92;;;12.73;;
52978;SDS011;63430;53.186;6.598;2022-12-18T06:48:05;21.83;;;14.27;;
52978;SDS011;63430;53.186;6.598;2022-12-18T06:50:10;24.00;;;14.40;;
52978;SDS011;63430;53.186;6.598;2022-12-18T06:52:16;26.85;;;13.90;;
52978;SDS011;63430;53.186;6.598;2022-12-18T06:54:19;25.45;;;14.48;;
52978;SDS011;63430;53.186;6.598;2022-12-18T06:56:23;21.47;;;15.27;;
52978;SDS011;63430;53.186;6.598;2022-12-18T06:58:25;17.50;;;11.93;;
52978;SDS011;63430;53.186;6.598;2022-12-18T07:00:28;27.10;;;14.35;;
52978;SDS011;63430;53.186;6.598;2022-12-18T07:02:33;30.02;;;12.77;;
52978;SDS011;63430;53.186;6.598;2022-12-18T07:04:36;25.30;;;11.93;;
52978;SDS011;63430;53.186;6.598;2022-12-18T07:06:43;22.15;;;13.35;;
52978;SDS011;63430;53.186;6.598;2022-12-18T07:08:46;27.88;;;12.80;;
52978;SDS011;63430;53.186;6.598;2022-12-18T07:10:49;29.48;;;13.68;;
52978;SDS011;63430;53.186;6.598;2022-12-18T07:12:56;28.20;;;11.60;;
52978;SDS011;63430;53.186;6.598;2022-12-18T07:15:07;19.67;;;14.32;;
52978;SDS011;63430;53.186;6.598;2022-12-18T07:17:11;24.55;;;12.65;;
52978;SDS011;63430;53.186;6.598;2022-12-18T07:19:16;16.08;;;11.57;;
52978;SDS011;63430;53.186;6.598;2022-12-18T07:21:23;27.27;;;12.40;;
52978;SDS011;63430;53.186;6.598;2022-12-18T07:23:29;23.00;;;13.95;;
52978;SDS011;63430;53.186;6.598;2022-12-18T07:25:33;15.23;;;11.95;;
52978;SDS011;63430;53.186;6.598;2022-12-18T07:27:36;21.45;;;13.27;;
52978;SDS011;63430;53.186;6.598;2022-12-18T07:29:38;17.45;;;12.07;;
52978;SDS011;63430;53.186;6.598;2022-12-18T07:31:41;22.83;;;13.60;;
52978;SDS011;63430;53.186;6.598;2022-12-18T07:33:44;19.30;;;12.43;;
52978;SDS011;63430;53.186;6.598;2022-12-18T07:35:46;20.33;;;11.57;;
52978;SDS011;63430;53.186;6.598;2022-12-18T07:37:49;22.15;;;12.75;;
52978;SDS011;63430;53.186;6.598;2022-12-18T07:39:56;20.35;;;12.82;;
52978;SDS011;63430;53.186;6.598;2022-12-18T07:41:58;21.02;;;11.45;;
52978;SDS011;63430;53.186;6.598;2022-12-18T07:44:22;20.17;;;13.13;;
52978;SDS011;63430;53.186;6.598;2022-12-18T07:46:24;14.93;;;12.00;;
52978;SDS011;63430;53.186;6.598;2022-12-18T07:48:27;14.70;;;10.43;;
52978;SDS011;63430;53.186;6.598;2022-12-18T07:50:30;20.65;;;11.48;;
52978;SDS011;63430;53.186;6.598;2022-12-18T07:52:34;15.07;;;12.13;;
52978;SDS011;63430;53.186;6.598;2022-12-18T07:54:37;20.30;;;12.77;;
52978;SDS011;63430;53.186;6.598;2022-12-18T07:56:42;19.02;;;11.23;;
52978;SDS011;63430;53.186;6.598;2022-12-18T07:58:48;21.98;;;13.10;;
52978;SDS011;63430;53.186;6.598;2022-12-18T08:00:51;14.30;;;10.93;;
52978;SDS011;63430;53.186;6.598;2022-12-18T08:02:53;17.30;;;12.05;;
52978;SDS011;63430;53.186;6.598;2022-12-18T08:04:56;17.15;;;10.95;;
52978;SDS011;63430;53.186;6.598;2022-12-18T08:06:59;23.60;;;11.40;;
52978;SDS011;63430;53.186;6.598;2022-12-18T08:09:02;15.13;;;10.63;;
52978;SDS011;63430;53.186;6.598;2022-12-18T08:11:05;15.52;;;11.73;;
52978;SDS011;63430;53.186;6.598;2022-12-18T08:13:11;21.88;;;11.23;;
52978;SDS011;63430;53.186;6.598;2022-12-18T08:15:17;19.45;;;11.65;;
52978;SDS011;63430;53.186;6.598;2022-12-18T08:17:20;14.23;;;10.68;;
52978;SDS011;63430;53.186;6.598;2022-12-18T08:19:26;19.60;;;10.40;;
52978;SDS011;63430;53.186;6.598;2022-12-18T08:21:29;20.58;;;11.77;;
52978;SDS011;63430;53.186;6.598;2022-12-18T08:25:42;17.50;;;10.45;;
52978;SDS011;63430;53.186;6.598;2022-12-18T08:27:46;20.60;;;11.60;;
52978;SDS011;63430;53.186;6.598;2022-12-18T08:29:51;14.80;;;11.23;;
52978;SDS011;63430;53.186;6.598;2022-12-18T08:31:54;18.25;;;13.30;;
52978;SDS011;63430;53.186;6.598;2022-12-18T08:33:57;19.20;;;11.60;;
52978;SDS011;63430;53.186;6.598;2022-12-18T08:36:01;26.85;;;13.48;;
52978;SDS011;63430;53.186;6.598;2022-12-18T08:38:05;18.98;;;12.52;;
52978;SDS011;63430;53.186;6.598;2022-12-18T08:40:10;17.92;;;12.90;;
52978;SDS011;63430;53.186;6.598;2022-12-18T08:42:14;13.27;;;9.82;;
52978;SDS011;63430;53.186;6.598;2022-12-18T08:44:38;18.60;;;11.73;;
52978;SDS011;63430;53.186;6.598;2022-12-18T08:46:43;16.30;;;11.18;;
52978;SDS011;63430;53.186;6.598;2022-12-18T08:48:46;17.38;;;11.90;;
52978;SDS011;63430;53.186;6.598;2022-12-18T08:50:59;18.13;;;10.52;;
52978;SDS011;63430;53.186;6.598;2022-12-18T08:53:02;14.43;;;11.07;;
52978;SDS011;63430;53.186;6.598;2022-12-18T08:55:06;21.03;;;11.10;;
52978;SDS011;63430;53.186;6.598;2022-12-18T08:57:10;24.73;;;13.25;;
52978;SDS011;63430;53.186;6.598;2022-12-18T08:59:12;17.02;;;11.93;;
52978;SDS011;63430;53.186;6.598;2022-12-18T09:01:29;19.48;;;11.80;;
52978;SDS011;63430;53.186;6.598;2022-12-18T09:03:35;19.42;;;10.43;;
52978;SDS011;63430;53.186;6.598;2022-12-18T09:05:38;17.75;;;11.40;;
52978;SDS011;63430;53.186;6.598;2022-12-18T09:07:41;20.92;;;13.73;;
52978;SDS011;63430;53.186;6.598;2022-12-18T09:09:46;17.70;;;11.38;;
52978;SDS011;63430;53.186;6.598;2022-12-18T09:11:52;17.58;;;13.32;;
52978;SDS011;63430;53.186;6.598;2022-12-18T09:13:55;19.85;;;12.50;;
52978;SDS011;63430;53.186;6.598;2022-12-18T09:15:57;18.35;;;11.52;;
52978;SDS011;63430;53.186;6.598;2022-12-18T09:18:00;12.57;;;11.30;;
52978;SDS011;63430;53.186;6.598;2022-12-18T09:20:09;16.65;;;11.52;;
52978;SDS011;63430;53.186;6.598;2022-12-18T09:22:12;14.57;;;9.93;;
52978;SDS011;63430;53.186;6.598;2022-12-18T09:24:15;15.55;;;11.88;;
52978;SDS011;63430;53.186;6.598;2022-12-18T09:26:18;18.35;;;12.05;;
52978;SDS011;63430;53.186;6.598;2022-12-18T09:28:21;14.38;;;10.95;;
52978;SDS011;63430;53.186;6.598;2022-12-18T09:30:24;13.70;;;11.38;;
52978;SDS011;63430;53.186;6.598;2022-12-18T09:32:29;14.63;;;11.48;;
52978;SDS011;63430;53.186;6.598;2022-12-18T09:34:32;13.50;;;10.07;;
52978;SDS011;63430;53.186;6.598;2022-12-18T09:36:37;20.65;;;11.95;;
52978;SDS011;63430;53.186;6.598;2022-12-18T09:38:40;17.52;;;11.25;;
52978;SDS011;63430;53.186;6.598;2022-12-18T09:40:44;20.85;;;11.30;;
52978;SDS011;63430;53.186;6.598;2022-12-18T09:42:51;16.05;;;11.05;;
52978;SDS011;63430;53.186;6.598;2022-12-18T09:44:59;16.38;;;11.65;;
52978;SDS011;63430;53.186;6.598;2022-12-18T09:47:11;16.95;;;11.38;;
52978;SDS011;63430;53.186;6.598;2022-12-18T09:49:19;15.07;;;10.93;;
52978;SDS011;63430;53.186;6.598;2022-12-18T09:51:26;14.55;;;11.15;;
52978;SDS011;63430;53.186;6.598;2022-12-18T09:53:35;14.40;;;10.55;;
52978;SDS011;63430;53.186;6.598;2022-12-18T09:55:41;14.07;;;10.32;;
52978;SDS011;63430;53.186;6.598;2022-12-18T09:57:49;17.20;;;10.55;;
52978;SDS011;63430;53.186;6.598;2022-12-18T09:59:58;17.00;;;10.98;;
52978;SDS011;63430;53.186;6.598;2022-12-18T10:02:15;12.88;;;9.52;;
52978;SDS011;63430;53.186;6.598;2022-12-18T10:04:20;12.85;;;9.73;;
52978;SDS011;63430;53.186;6.598;2022-12-18T10:06:23;17.30;;;10.52;;
52978;SDS011;63430;53.186;6.598;2022-12-18T10:08:37;11.70;;;9.60;;
52978;SDS011;63430;53.186;6.598;2022-12-18T10:10:47;10.30;;;9.10;;
52978;SDS011;63430;53.186;6.598;2022-12-18T10:12:58;11.75;;;8.82;;
52978;SDS011;63430;53.186;6.598;2022-12-18T10:15:10;19.95;;;10.05;;
52978;SDS011;63430;53.186;6.598;2022-12-18T10:17:20;15.77;;;9.68;;
52978;SDS011;63430;53.186;6.598;2022-12-18T10:19:32;10.23;;;8.60;;
52978;SDS011;63430;53.186;6.598;2022-12-18T10:21:48;13.55;;;9.88;;
52978;SDS011;63430;53.186;6.598;2022-12-18T10:24:11;15.98;;;9.48;;
52978;SDS011;63430;53.186;6.598;2022-12-18T10:26:21;14.40;;;10.52;;
52978;SDS011;63430;53.186;6.598;2022-12-18T10:28:26;13.00;;;9.50;;
52978;SDS011;63430;53.186;6.598;2022-12-18T10:30:31;10.82;;;8.80;;
52978;SDS011;63430;53.186;6.598;2022-12-18T10:32:36;11.85;;;9.32;;
52978;SDS011;63430;53.186;6.598;2022-12-18T10:34:40;19.33;;;10.55;;
52978;SDS011;63430;53.186;6.598;2022-12-18T10:36:48;12.18;;;8.13;;
52978;SDS011;63430;53.186;6.598;2022-12-18T10:39:03;8.48;;;7.47;;
52978;SDS011;63430;53.186;6.598;2022-12-18T10:41:23;14.43;;;7.50;;
52978;SDS011;63430;53.186;6.598;2022-12-18T10:43:30;9.85;;;8.15;;
52978;SDS011;63430;53.186;6.598;2022-12-18T10:45:34;10.27;;;8.85;;
52978;SDS011;63430;53.186;6.598;2022-12-18T10:47:40;9.00;;;8.05;;
52978;SDS011;63430;53.186;6.598;2022-12-18T10:49:47;9.18;;;8.25;;
52978;SDS011;63430;53.186;6.598;2022-12-18T10:51:51;11.73;;;8.82;;
52978;SDS011;63430;53.186;6.598;2022-12-18T10:54:20;11.48;;;8.95;;
52978;SDS011;63430;53.186;6.598;2022-12-18T10:56:24;12.07;;;9.35;;
52978;SDS011;63430;53.186;6.598;2022-12-18T10:58:30;8.85;;;7.97;;
52978;SDS011;63430;53.186;6.598;2022-12-18T11:02:37;13.00;;;7.95;;
52978;SDS011;63430;53.186;6.598;2022-12-18T11:04:49;9.20;;;7.97;;
52978;SDS011;63430;53.186;6.598;2022-12-18T11:06:57;14.75;;;7.90;;
52978;SDS011;63430;53.186;6.598;2022-12-18T11:09:01;8.55;;;7.63;;
52978;SDS011;63430;53.186;6.598;2022-12-18T11:11:19;13.48;;;9.15;;
52978;SDS011;63430;53.186;6.598;2022-12-18T11:13:23;9.15;;;8.07;;
52978;SDS011;63430;53.186;6.598;2022-12-18T11:15:29;8.80;;;7.85;;
52978;SDS011;63430;53.186;6.598;2022-12-18T11:17:34;11.75;;;8.00;;
52978;SDS011;63430;53.186;6.598;2022-12-18T11:19:38;10.05;;;8.27;;
52978;SDS011;63430;53.186;6.598;2022-12-18T11:21:42;13.35;;;8.10;;
52978;SDS011;63430;53.186;6.598;2022-12-18T11:23:46;8.95;;;8.02;;
52978;SDS011;63430;53.186;6.598;2022-12-18T11:25:51;11.88;;;7.78;;
52978;SDS011;63430;53.186;6.598;2022-12-18T11:27:59;11.60;;;7.95;;
52978;SDS011;63430;53.186;6.598;2022-12-18T11:30:08;10.20;;;7.55;;
52978;SDS011;63430;53.186;6.598;2022-12-18T11:32:26;7.88;;;7.18;;
52978;SDS011;63430;53.186;6.598;2022-12-18T11:34:33;11.27;;;8.55;;
52978;SDS011;63430;53.186;6.598;2022-12-18T11:36:38;19.85;;;7.97;;
52978;SDS011;63430;53.186;6.598;2022-12-18T11:38:46;9.40;;;7.78;;
52978;SDS011;63430;53.186;6.598;2022-12-18T11:40:53;8.55;;;7.22;;
52978;SDS011;63430;53.186;6.598;2022-12-18T11:43:04;8.18;;;7.38;;
52978;SDS011;63430;53.186;6.598;2022-12-18T11:45:24;9.38;;;8.27;;
52978;SDS011;63430;53.186;6.598;2022-12-18T11:47:33;10.90;;;7.95;;
52978;SDS011;63430;53.186;6.598;2022-12-18T11:49:41;11.43;;;7.78;;
52978;SDS011;63430;53.186;6.598;2022-12-18T11:51:48;9.13;;;7.80;;
52978;SDS011;63430;53.186;6.598;2022-12-18T11:53:54;9.02;;;8.13;;
52978;SDS011;63430;53.186;6.598;2022-12-18T11:56:02;10.67;;;7.87;;
52978;SDS011;63430;53.186;6.598;2022-12-18T11:58:32;7.45;;;6.72;;
52978;SDS011;63430;53.186;6.598;2022-12-18T12:00:46;12.25;;;8.25;;
52978;SDS011;63430;53.186;6.598;2022-12-18T12:03:04;20.05;;;8.20;;
52978;SDS011;63430;53.186;6.598;2022-12-18T12:05:31;8.68;;;7.78;;
52978;SDS011;63430;53.186;6.598;2022-12-18T12:07:43;7.43;;;6.32;;
52978;SDS011;63430;53.186;6.598;2022-12-18T12:09:56;8.93;;;6.50;;
52978;SDS011;63430;53.186;6.598;2022-12-18T12:12:10;9.77;;;7.95;;
52978;SDS011;63430;53.186;6.598;2022-12-18T12:16:54;13.63;;;7.47;;
52978;SDS011;63430;53.186;6.598;2022-12-18T12:19:10;9.48;;;7.80;;
52978;SDS011;63430;53.186;6.598;2022-12-18T12:21:26;9.70;;;7.05;;
52978;SDS011;63430;53.186;6.598;2022-12-18T12:23:39;9.20;;;7.65;;
52978;SDS011;63430;53.186;6.598;2022-12-18T12:25:49;8.32;;;7.50;;
52978;SDS011;63430;53.186;6.598;2022-12-18T12:27:59;8.13;;;6.97;;
52978;SDS011;63430;53.186;6.598;2022-12-18T12:30:20;7.60;;;6.22;;
52978;SDS011;63430;53.186;6.598;2022-12-18T12:32:30;7.50;;;6.80;;
52978;SDS011;63430;53.186;6.598;2022-12-18T12:34:50;10.07;;;6.28;;
52978;SDS011;63430;53.186;6.598;2022-12-18T12:37:10;7.68;;;6.32;;
52978;SDS011;63430;53.186;6.598;2022-12-18T12:39:26;6.35;;;5.85;;